createdAt,value
2022-10-05T00:01:35.449Z,30.97
2022-10-05T00:03:40.033Z,31.27
2022-10-05T00:05:49.448Z,32.00
2022-10-05T00:07:53.685Z,31.68
2022-10-05T00:09:58.829Z,31.71
2022-10-05T00:12:17.748Z,31.90
2022-10-05T00:14:22.841Z,32.35
2022-10-05T00:16:26.528Z,33.21
2022-10-05T00:18:30.210Z,33.38
2022-10-05T00:20:33.861Z,33.54
2022-10-05T00:22:37.528Z,33.71
2022-10-05T00:24:41.311Z,34.69
2022-10-05T00:26:45.160Z,35.04
2022-10-05T00:28:49.663Z,35.68
2022-10-05T00:30:56.137Z,37.40
2022-10-05T00:33:00.235Z,38.13
2022-10-05T00:35:03.815Z,38.94
2022-10-05T00:37:07.559Z,37.89
2022-10-05T00:40:17.789Z,37.79
2022-10-05T00:42:51.185Z,39.14
2022-10-05T00:45:01.394Z,39.33
2022-10-05T00:47:05.011Z,39.79
2022-10-05T00:49:14.785Z,43.25
2022-10-05T00:51:23.961Z,41.89
2022-10-05T00:53:40.991Z,41.82
2022-10-05T00:56:02.859Z,41.56
2022-10-05T00:58:09.370Z,41.30
2022-10-05T01:00:15.184Z,41.49
2022-10-05T01:02:19.526Z,45.71
2022-10-05T01:04:55.442Z,45.66
2022-10-05T01:07:05.026Z,45.09
2022-10-05T01:09:08.390Z,46.31
2022-10-05T01:11:15.692Z,46.41
2022-10-05T01:13:21.910Z,46.54
2022-10-05T01:15:40.915Z,46.65
2022-10-05T01:17:50.392Z,47.63
2022-10-05T01:19:56.773Z,47.67
2022-10-05T01:22:23.063Z,49.05
2022-10-05T01:24:39.912Z,52.67
2022-10-05T01:26:47.246Z,50.54
2022-10-05T01:29:16.683Z,51.00
2022-10-05T01:31:27.460Z,51.96
2022-10-05T01:33:39.603Z,49.63
2022-10-05T01:35:43.459Z,50.67
2022-10-05T01:37:52.886Z,48.69
2022-10-05T01:40:03.766Z,48.16
2022-10-05T01:42:16.452Z,48.43
2022-10-05T01:44:23.647Z,49.18
2022-10-05T01:46:35.275Z,50.18
2022-10-05T01:48:53.849Z,51.62
2022-10-05T01:51:03.532Z,51.63
2022-10-05T01:53:16.530Z,52.23
2022-10-05T01:55:33.316Z,53.65
2022-10-05T01:57:45.787Z,53.58
2022-10-05T02:00:09.045Z,52.74
2022-10-05T02:02:23.196Z,54.10
2022-10-05T02:07:01.857Z,57.10
2022-10-05T02:09:15.815Z,57.37
2022-10-05T02:11:20.245Z,60.24
2022-10-05T02:13:42.666Z,60.60
2022-10-05T02:15:50.179Z,61.56
2022-10-05T02:18:14.167Z,58.27
2022-10-05T02:20:30.792Z,56.78
2022-10-05T02:22:45.423Z,57.10
2022-10-05T02:25:15.514Z,58.87
2022-10-05T02:27:23.195Z,60.26
2022-10-05T02:29:29.444Z,60.37
2022-10-05T02:31:51.661Z,60.21
2022-10-05T02:34:15.362Z,62.17
2022-10-05T02:36:23.782Z,63.31
2022-10-05T02:38:39.696Z,63.87
2022-10-05T02:41:02.098Z,64.96
2022-10-05T03:08:00.518Z,74.06
2022-10-05T03:10:11.116Z,73.44
2022-10-05T03:12:17.620Z,71.76
2022-10-05T03:14:28.198Z,71.53
2022-10-05T03:16:41.901Z,71.48
2022-10-05T03:18:48.530Z,72.62
2022-10-05T03:21:11.959Z,71.36
2022-10-05T03:23:31.076Z,70.31
2022-10-05T03:25:58.534Z,69.38
2022-10-05T03:28:08.182Z,71.19
2022-10-05T03:30:34.680Z,72.31
2022-10-05T03:32:56.929Z,73.25
2022-10-05T03:35:17.191Z,74.74
2022-10-05T03:37:28.961Z,73.71
2022-10-05T03:39:41.083Z,73.44
2022-10-05T03:41:49.499Z,74.37
2022-10-05T03:43:53.111Z,73.71
2022-10-05T03:46:09.242Z,73.99
2022-10-05T03:48:16.602Z,73.47
2022-10-05T03:50:22.684Z,73.25
2022-10-05T03:52:31.834Z,72.97
2022-10-05T03:54:38.052Z,73.23
2022-10-05T03:56:44.662Z,73.44
2022-10-05T03:58:57.614Z,72.46
2022-10-05T04:01:06.786Z,72.65
2022-10-05T04:03:28.787Z,74.13
2022-10-05T04:05:44.925Z,74.23
2022-10-05T04:07:55.349Z,74.48
2022-10-05T04:10:02.293Z,74.67
2022-10-05T04:12:25.320Z,73.61
2022-10-05T04:14:35.724Z,74.78
2022-10-05T04:16:44.758Z,74.33
2022-10-05T04:19:07.317Z,74.29
2022-10-05T04:21:29.741Z,73.94
2022-10-05T04:23:56.381Z,73.27
2022-10-05T04:26:23.192Z,73.27
2022-10-05T04:28:44.626Z,74.26
2022-10-05T04:30:51.329Z,76.14
2022-10-05T04:32:58.732Z,77.09
2022-10-05T04:35:16.976Z,76.42
2022-10-05T04:37:32.240Z,77.08
2022-10-05T04:39:46.958Z,78.27
2022-10-05T04:42:06.003Z,78.66
2022-10-05T04:44:12.585Z,78.83
2022-10-05T04:46:31.384Z,78.80
2022-10-05T04:48:48.046Z,79.27
2022-10-05T04:50:51.969Z,79.10
2022-10-05T04:53:05.198Z,79.11
2022-10-05T04:55:20.899Z,79.53
2022-10-05T04:57:27.384Z,79.85
2022-10-05T04:59:38.652Z,79.97
2022-10-05T05:02:03.091Z,80.02
2022-10-05T05:04:16.356Z,81.38
2022-10-05T05:06:32.024Z,82.11
2022-10-05T05:08:45.565Z,81.08
2022-10-05T05:11:04.375Z,80.50
2022-10-05T05:13:08.655Z,80.61
2022-10-05T05:15:24.877Z,81.08
2022-10-05T05:17:38.570Z,82.38
2022-10-05T05:19:49.557Z,83.29
2022-10-05T05:22:02.667Z,84.08
2022-10-05T05:24:26.458Z,84.92
2022-10-05T05:26:38.906Z,85.17
2022-10-05T05:28:49.450Z,85.79
2022-10-05T05:30:58.817Z,86.48
2022-10-05T05:33:12.648Z,86.55
2022-10-05T05:35:45.494Z,86.41
2022-10-05T05:38:11.577Z,86.95
2022-10-05T05:40:22.114Z,86.08
2022-10-05T05:42:37.876Z,86.03
2022-10-05T05:45:01.605Z,85.82
2022-10-05T05:47:19.485Z,86.63
2022-10-05T05:49:28.873Z,86.66
2022-10-05T05:51:36.986Z,86.66
2022-10-05T05:53:45.991Z,86.71
2022-10-05T05:55:53.119Z,87.28
2022-10-05T05:58:07.298Z,88.34
2022-10-05T06:00:13.846Z,88.46
2022-10-05T06:02:28.881Z,88.90
2022-10-05T06:04:35.413Z,88.61
2022-10-05T06:06:42.678Z,89.07
2022-10-05T06:09:15.383Z,89.41
2022-10-05T06:11:31.354Z,89.68
2022-10-05T06:13:37.164Z,90.42
2022-10-05T06:15:49.124Z,90.37
2022-10-05T06:17:58.710Z,90.17
2022-10-05T06:20:05.657Z,90.36
2022-10-05T06:22:23.639Z,90.90
2022-10-05T06:24:44.184Z,90.26
2022-10-05T06:27:03.682Z,91.97
2022-10-05T06:29:34.528Z,90.87
2022-10-05T06:31:47.661Z,91.03
2022-10-05T06:33:53.290Z,90.85
2022-10-05T06:36:08.690Z,90.07
2022-10-05T06:38:30.873Z,90.22
2022-10-05T06:40:46.307Z,89.00
2022-10-05T06:43:00.837Z,88.03
2022-10-05T06:45:32.458Z,87.47
2022-10-05T06:48:23.118Z,85.56
2022-10-05T06:50:54.176Z,85.96
2022-10-05T06:53:04.739Z,84.59
2022-10-05T06:55:13.261Z,85.25
2022-10-05T06:57:42.336Z,84.84
2022-10-05T07:00:04.099Z,83.89
2022-10-05T07:02:31.875Z,83.33
2022-10-05T07:04:42.436Z,84.77
2022-10-05T07:06:55.990Z,83.43
2022-10-05T07:09:13.139Z,84.31
2022-10-05T07:11:25.517Z,84.03
2022-10-05T07:13:52.217Z,85.68
2022-10-05T07:16:01.219Z,85.51
2022-10-05T07:18:04.620Z,84.83
2022-10-05T07:20:21.086Z,85.82
2022-10-05T07:22:24.738Z,84.51
2022-10-05T07:24:46.741Z,84.84
2022-10-05T07:27:10.553Z,85.69
2022-10-05T07:29:20.069Z,85.33
2022-10-05T07:31:30.929Z,86.24
2022-10-05T07:33:43.575Z,86.07
2022-10-05T07:36:10.180Z,86.46
2022-10-05T07:38:22.229Z,87.11
2022-10-05T07:40:42.026Z,86.71
2022-10-05T07:42:53.789Z,87.74
2022-10-05T07:45:06.614Z,88.35
2022-10-05T07:47:19.677Z,89.07
2022-10-05T07:49:27.524Z,89.45
2022-10-05T07:51:32.006Z,89.34
2022-10-05T07:53:40.563Z,90.31
2022-10-05T07:55:52.937Z,90.91
2022-10-05T07:58:00.018Z,91.20
2022-10-05T08:00:07.649Z,91.86
2022-10-05T08:02:29.955Z,92.28
2022-10-05T08:04:41.787Z,92.67
2022-10-05T08:07:11.508Z,93.01
2022-10-05T08:09:29.613Z,93.66
2022-10-05T08:11:41.304Z,95.04
2022-10-05T08:13:48.376Z,96.23
2022-10-05T08:15:54.932Z,96.75
2022-10-05T08:18:03.569Z,96.94
2022-10-05T08:20:15.232Z,97.87
2022-10-05T08:22:32.776Z,98.81
2022-10-05T08:25:11.696Z,100.00
2022-10-05T08:27:30.679Z,100.00
2022-10-05T08:29:39.069Z,100.00
2022-10-05T08:31:45.571Z,100.00
2022-10-05T08:34:08.132Z,100.00
2022-10-05T08:36:14.636Z,100.00
2022-10-05T08:38:19.904Z,100.00
2022-10-05T08:40:29.925Z,100.00
2022-10-05T08:42:52.447Z,100.00
2022-10-05T08:45:10.162Z,100.00
2022-10-05T08:47:18.391Z,100.00
2022-10-05T08:49:28.995Z,100.00
2022-10-05T08:51:44.532Z,100.00
2022-10-05T08:53:48.232Z,100.00
2022-10-05T08:55:58.939Z,100.00
2022-10-05T08:58:27.674Z,100.00
2022-10-05T09:00:42.715Z,100.00
2022-10-05T09:02:58.772Z,100.00
2022-10-05T09:05:17.685Z,100.00
2022-10-05T09:07:38.980Z,100.00
2022-10-05T09:10:02.642Z,100.00
2022-10-05T09:12:19.639Z,100.00
2022-10-05T09:14:23.415Z,100.00
2022-10-05T09:16:40.320Z,100.00
2022-10-05T09:18:55.921Z,100.00
2022-10-05T09:21:23.646Z,100.00
2022-10-05T09:23:41.027Z,100.00
2022-10-05T09:25:58.613Z,100.00
2022-10-05T09:28:08.043Z,100.00
2022-10-05T09:30:17.933Z,100.00
2022-10-05T09:32:36.430Z,100.00
2022-10-05T09:34:43.474Z,100.00
2022-10-05T09:36:49.906Z,100.00
2022-10-05T09:38:59.294Z,100.00
2022-10-05T09:41:02.929Z,100.00
2022-10-05T09:43:25.063Z,100.00
2022-10-05T09:45:50.281Z,100.00
2022-10-05T09:47:54.474Z,100.00
2022-10-05T09:50:17.135Z,100.00
2022-10-05T09:52:39.492Z,100.00
2022-10-05T09:55:18.091Z,100.00
2022-10-05T09:57:21.913Z,100.00
2022-10-05T09:59:25.267Z,100.00
2022-10-05T10:01:50.255Z,100.00
2022-10-05T10:03:57.697Z,100.00
2022-10-05T10:06:01.730Z,100.00
2022-10-05T10:08:05.755Z,100.00
2022-10-05T10:10:32.924Z,100.00
2022-10-05T10:12:58.203Z,100.00
2022-10-05T10:15:24.933Z,100.00
2022-10-05T10:17:41.594Z,100.00
2022-10-05T10:19:58.717Z,100.00
2022-10-05T10:22:22.616Z,100.00
2022-10-05T10:24:44.719Z,100.00
2022-10-05T10:27:08.686Z,100.00
2022-10-05T10:29:24.352Z,100.00
2022-10-05T10:31:28.310Z,100.00
2022-10-05T10:33:41.078Z,100.00
2022-10-05T10:36:07.238Z,100.00
2022-10-05T10:38:13.820Z,100.00
2022-10-05T10:40:27.976Z,100.00
2022-10-05T10:42:50.466Z,100.00
2022-10-05T10:45:12.593Z,100.00
2022-10-05T10:47:16.203Z,100.00
2022-10-05T10:49:58.456Z,100.00
2022-10-05T10:52:23.108Z,100.00
2022-10-05T10:54:26.814Z,100.00
2022-10-05T10:56:32.834Z,100.00
2022-10-05T10:58:48.392Z,100.00
2022-10-05T11:01:03.451Z,100.00
2022-10-05T11:03:06.843Z,100.00
2022-10-05T11:05:28.518Z,100.00
2022-10-05T11:07:50.311Z,100.00
2022-10-05T11:09:54.235Z,100.00
2022-10-05T11:12:10.359Z,100.00
2022-10-05T11:14:32.539Z,100.00
2022-10-05T11:16:47.896Z,100.00
2022-10-05T11:19:06.499Z,100.00
2022-10-05T11:21:27.157Z,100.00
2022-10-05T11:23:40.620Z,100.00
2022-10-05T11:26:03.006Z,100.00
2022-10-05T11:28:25.252Z,100.00
2022-10-05T11:30:51.409Z,100.00
2022-10-05T11:33:13.742Z,100.00
2022-10-05T11:35:25.683Z,100.00
2022-10-05T11:37:48.360Z,100.00
2022-10-05T11:40:15.922Z,100.00
2022-10-05T11:42:19.349Z,100.00
2022-10-05T11:44:22.835Z,100.00
2022-10-05T11:46:31.949Z,100.00
2022-10-05T11:48:42.655Z,100.00
2022-10-05T11:50:49.053Z,100.00
2022-10-05T11:52:59.415Z,100.00
2022-10-05T11:55:10.881Z,100.00
2022-10-05T11:57:16.990Z,100.00
2022-10-05T11:59:43.475Z,100.00
2022-10-05T12:02:07.263Z,100.00
2022-10-05T12:04:19.747Z,100.00
2022-10-05T12:06:25.561Z,100.00
2022-10-05T12:08:47.631Z,100.00
2022-10-05T12:10:56.935Z,100.00
2022-10-05T12:13:01.163Z,100.00
2022-10-05T12:15:15.965Z,100.00
2022-10-05T12:17:41.745Z,100.00
2022-10-05T12:19:56.480Z,100.00
2022-10-05T12:22:21.418Z,100.00
2022-10-05T12:24:36.952Z,100.00
2022-10-05T12:26:59.687Z,100.00
2022-10-05T12:29:09.164Z,100.00
2022-10-05T12:31:19.300Z,100.00
2022-10-05T12:33:28.654Z,100.00
2022-10-05T12:35:48.185Z,100.00
2022-10-05T12:37:58.420Z,100.00
2022-10-05T12:40:21.789Z,100.00
2022-10-05T12:42:30.004Z,100.00
2022-10-05T12:44:44.081Z,100.00
2022-10-05T12:47:24.827Z,100.00
2022-10-05T12:49:41.319Z,100.00
2022-10-05T12:51:50.007Z,100.00
2022-10-05T12:54:05.180Z,100.00
2022-10-05T12:56:37.412Z,98.91
2022-10-05T12:58:53.764Z,97.66
2022-10-05T13:01:04.134Z,96.84
2022-10-05T13:03:18.407Z,96.23
2022-10-05T13:05:30.362Z,95.23
2022-10-05T13:07:46.657Z,94.33
2022-10-05T13:10:03.758Z,93.33
2022-10-05T13:12:31.069Z,92.06
2022-10-05T13:14:53.225Z,90.44
2022-10-05T13:17:02.551Z,89.81
2022-10-05T13:19:21.554Z,87.97
2022-10-05T13:21:31.076Z,86.36
2022-10-05T13:23:56.571Z,86.25
2022-10-05T13:26:11.866Z,85.99
2022-10-05T13:28:18.425Z,86.06
2022-10-05T13:30:32.092Z,85.46
2022-10-05T13:32:37.827Z,84.15
2022-10-05T13:34:48.293Z,83.54
2022-10-05T13:37:11.433Z,83.00
2022-10-05T13:39:15.237Z,83.21
2022-10-05T13:41:22.639Z,82.58
2022-10-05T13:43:35.509Z,82.70
2022-10-05T13:45:46.202Z,81.50
2022-10-05T13:47:49.880Z,81.81
2022-10-05T13:49:56.950Z,80.73
2022-10-05T13:52:21.947Z,79.91
2022-10-05T13:54:38.415Z,78.01
2022-10-05T13:56:46.378Z,78.21
2022-10-05T13:58:53.060Z,77.65
2022-10-05T14:00:59.433Z,77.37
2022-10-05T14:03:03.701Z,76.14
2022-10-05T14:05:17.180Z,77.51
2022-10-05T14:07:24.041Z,76.94
2022-10-05T14:09:32.454Z,76.43
2022-10-05T14:11:37.817Z,74.78
2022-10-05T14:13:48.818Z,74.03
2022-10-05T14:16:18.375Z,71.23
2022-10-05T14:18:25.980Z,71.02
2022-10-05T14:20:37.695Z,70.60
2022-10-05T14:22:44.436Z,70.87
2022-10-05T14:25:08.261Z,68.14
2022-10-05T14:27:29.726Z,67.66
2022-10-05T14:29:37.781Z,67.33
2022-10-05T14:31:48.990Z,69.26
2022-10-05T14:33:52.563Z,68.05
2022-10-05T14:35:57.941Z,67.96
2022-10-05T14:38:03.351Z,67.43
2022-10-05T14:40:29.703Z,66.29
2022-10-05T14:42:47.258Z,66.21
2022-10-05T14:45:03.165Z,68.67
2022-10-05T14:47:33.191Z,67.59
2022-10-05T14:49:49.226Z,64.19
2022-10-05T14:51:54.274Z,62.95
2022-10-05T14:53:59.450Z,61.27
2022-10-05T14:56:06.486Z,60.21
2022-10-05T14:58:12.873Z,59.84
2022-10-05T15:00:17.726Z,58.69
2022-10-05T15:02:27.669Z,56.67
2022-10-05T15:04:31.593Z,54.29
2022-10-05T15:06:54.693Z,54.54
2022-10-05T15:09:18.248Z,52.19
2022-10-05T15:11:28.774Z,53.42
2022-10-05T15:13:34.168Z,55.25
2022-10-05T15:15:46.641Z,51.46
2022-10-05T15:17:53.554Z,53.31
2022-10-05T15:20:03.039Z,56.11
2022-10-05T15:22:12.752Z,51.74
2022-10-05T15:24:27.267Z,51.67
2022-10-05T15:26:39.963Z,52.73
2022-10-05T15:28:43.485Z,52.58
2022-10-05T15:31:00.701Z,49.50
2022-10-05T15:33:28.832Z,49.96
2022-10-05T15:35:50.339Z,52.25
2022-10-05T15:38:24.491Z,50.80
2022-10-05T15:40:34.456Z,51.69
2022-10-05T15:42:52.360Z,51.58
2022-10-05T15:45:17.173Z,49.79
2022-10-05T15:47:20.738Z,51.62
2022-10-05T15:49:24.101Z,50.43
2022-10-05T15:51:51.827Z,48.75
2022-10-05T15:54:27.410Z,46.72
2022-10-05T15:56:37.036Z,46.00
2022-10-05T15:58:50.474Z,45.91
2022-10-05T16:00:59.720Z,44.98
2022-10-05T16:03:27.422Z,44.38
2022-10-05T16:05:52.817Z,43.78
2022-10-05T16:08:15.394Z,44.16
2022-10-05T16:10:22.570Z,41.74
2022-10-05T16:12:47.299Z,43.55
2022-10-05T16:14:57.387Z,39.98
2022-10-05T16:17:06.616Z,39.04
2022-10-05T16:19:13.657Z,39.66
2022-10-05T16:21:26.110Z,39.70
2022-10-05T16:23:44.609Z,38.67
2022-10-05T16:26:04.074Z,40.07
2022-10-05T16:28:12.839Z,39.88
2022-10-05T16:30:23.591Z,39.53
2022-10-05T16:32:39.525Z,38.08
2022-10-05T16:34:51.950Z,38.75
2022-10-05T16:37:02.219Z,37.63
2022-10-05T16:39:15.810Z,38.20
2022-10-05T16:41:25.718Z,37.40
2022-10-05T16:43:41.114Z,35.96
2022-10-05T16:45:56.627Z,35.59
2022-10-05T16:48:18.434Z,36.47
2022-10-05T16:50:22.055Z,35.76
2022-10-05T16:52:30.223Z,35.96
2022-10-05T16:54:33.493Z,35.55
2022-10-05T16:56:45.352Z,35.44
2022-10-05T16:59:01.496Z,35.96
2022-10-05T17:01:27.607Z,35.55
2022-10-05T17:03:39.879Z,33.33
2022-10-05T17:05:56.919Z,33.33
2022-10-05T17:08:19.488Z,33.92
2022-10-05T17:10:38.438Z,33.51
2022-10-05T17:13:02.380Z,32.89
2022-10-05T17:15:30.108Z,32.61
2022-10-05T17:17:37.448Z,32.74
2022-10-05T17:20:02.678Z,32.81
2022-10-05T17:22:25.381Z,33.04
2022-10-05T17:24:47.354Z,32.56
2022-10-05T17:27:08.823Z,31.92
2022-10-05T17:29:28.136Z,31.46
2022-10-05T17:31:33.041Z,31.74
2022-10-05T17:33:56.557Z,31.61
2022-10-05T17:36:09.439Z,31.52
2022-10-05T17:38:31.787Z,30.82
2022-10-05T17:40:35.620Z,31.60
2022-10-05T17:42:39.635Z,30.22
2022-10-05T17:44:43.312Z,30.82
2022-10-05T17:46:57.643Z,30.38
2022-10-05T17:49:02.377Z,29.47
2022-10-05T17:51:35.667Z,29.57
2022-10-05T17:54:06.560Z,29.36
2022-10-05T17:56:10.735Z,29.38
2022-10-05T17:58:29.835Z,28.90
2022-10-05T18:00:35.244Z,28.78
2022-10-05T18:02:43.152Z,29.36
2022-10-05T18:05:03.616Z,29.14
2022-10-05T18:07:19.254Z,28.25
2022-10-05T18:09:23.162Z,28.76
2022-10-05T18:11:26.882Z,28.20
2022-10-05T18:13:38.103Z,28.02
2022-10-05T18:15:45.795Z,28.82
2022-10-05T18:18:21.803Z,28.37
2022-10-05T18:20:25.421Z,28.19
2022-10-05T18:22:29.471Z,27.74
2022-10-05T18:24:53.914Z,27.84
2022-10-05T18:27:06.242Z,27.94
2022-10-05T18:29:42.455Z,27.86
2022-10-05T18:31:49.587Z,27.91
2022-10-05T18:34:08.899Z,27.54
2022-10-05T18:36:15.288Z,27.35
2022-10-05T18:38:47.661Z,27.26
2022-10-05T18:41:06.618Z,28.03
2022-10-05T18:43:18.820Z,26.92
2022-10-05T18:45:28.778Z,27.58
2022-10-05T18:47:35.274Z,27.07
2022-10-05T18:49:38.961Z,27.17
2022-10-05T18:51:51.695Z,26.74
2022-10-05T18:53:58.526Z,26.62
2022-10-05T18:56:11.603Z,27.16
2022-10-05T18:58:21.371Z,27.01
2022-10-05T19:00:25.354Z,28.01
2022-10-05T19:02:29.799Z,27.16
2022-10-05T19:04:39.330Z,27.05
2022-10-05T19:06:53.219Z,26.90
2022-10-05T19:09:15.581Z,27.31
2022-10-05T19:11:19.556Z,26.95
2022-10-05T19:13:23.963Z,26.83
2022-10-05T19:15:35.652Z,26.33
2022-10-05T19:17:51.281Z,26.33
2022-10-05T19:20:01.352Z,26.34
2022-10-05T19:22:14.317Z,26.27
2022-10-05T19:24:28.519Z,26.72
2022-10-05T19:26:55.469Z,26.27
2022-10-05T19:29:17.282Z,26.36
2022-10-05T19:31:23.896Z,26.03
2022-10-05T19:33:39.152Z,26.06
2022-10-05T19:35:45.661Z,26.20
2022-10-05T19:38:01.605Z,26.33
2022-10-05T19:40:12.191Z,25.73
2022-10-05T19:42:24.289Z,26.62
2022-10-05T19:44:28.126Z,27.07
2022-10-05T19:46:34.159Z,26.19
2022-10-05T19:48:47.477Z,25.99
2022-10-05T19:50:55.741Z,25.19
2022-10-05T19:53:05.064Z,25.52
2022-10-05T19:55:16.786Z,25.95
2022-10-05T19:57:20.605Z,25.23
2022-10-05T19:59:27.853Z,26.03
2022-10-05T20:01:35.701Z,25.89
2022-10-05T20:03:39.482Z,25.50
2022-10-05T20:05:43.232Z,25.40
2022-10-05T20:07:47.366Z,26.47
2022-10-05T20:09:53.784Z,25.84
2022-10-05T20:12:02.969Z,25.20
2022-10-05T20:14:07.758Z,26.46
2022-10-05T20:16:32.400Z,26.09
2022-10-05T20:19:03.391Z,25.78
2022-10-05T20:21:07.590Z,25.56
2022-10-05T20:23:24.769Z,26.91
2022-10-05T20:25:29.985Z,26.05
2022-10-05T20:27:46.022Z,25.91
2022-10-05T20:29:49.543Z,26.17
2022-10-05T20:31:53.055Z,26.21
2022-10-05T20:33:59.508Z,26.72
2022-10-05T20:36:04.621Z,25.91
2022-10-05T20:38:10.650Z,26.59
2022-10-05T20:40:15.953Z,26.24
2022-10-05T20:42:20.867Z,26.47
2022-10-05T20:44:24.884Z,26.19
2022-10-05T20:46:32.160Z,26.28
2022-10-05T20:48:37.095Z,26.02
2022-10-05T20:50:43.521Z,25.88
2022-10-05T20:52:47.417Z,26.02
2022-10-05T20:54:54.774Z,26.05
2022-10-05T20:56:58.355Z,26.41
2022-10-05T20:59:01.863Z,26.38
2022-10-05T21:01:19.367Z,25.75
2022-10-05T21:03:26.330Z,26.02
2022-10-05T21:05:30.079Z,26.19
2022-10-05T21:07:35.296Z,26.15
2022-10-05T21:09:40.386Z,26.46
2022-10-05T21:11:44.147Z,26.74
2022-10-05T21:13:48.083Z,26.80
2022-10-05T21:15:51.677Z,26.12
2022-10-05T21:17:57.646Z,26.17
2022-10-05T21:20:01.588Z,28.11
2022-10-05T21:22:08.271Z,27.56
2022-10-05T21:24:18.467Z,27.37
2022-10-05T21:26:22.381Z,26.77
2022-10-05T21:28:27.016Z,27.03
2022-10-05T21:30:30.915Z,26.76
2022-10-05T21:32:35.086Z,26.17
2022-10-05T21:34:39.493Z,26.48
2022-10-05T21:36:43.364Z,27.11
2022-10-05T21:38:46.876Z,26.54
2022-10-05T21:40:50.917Z,26.18
2022-10-05T21:42:54.669Z,25.68
2022-10-05T21:45:00.821Z,25.28
2022-10-05T21:47:05.244Z,25.15
2022-10-05T21:49:10.709Z,24.96
2022-10-05T21:51:17.802Z,25.29
2022-10-05T21:53:22.879Z,24.63
2022-10-05T21:55:26.990Z,24.16
2022-10-05T21:57:31.498Z,24.23
2022-10-05T21:59:35.933Z,24.35
2022-10-05T22:01:39.421Z,24.33
2022-10-05T22:03:43.431Z,24.03
2022-10-05T22:05:47.170Z,23.72
2022-10-05T22:07:53.086Z,23.45
2022-10-05T22:09:56.861Z,24.00
2022-10-05T22:12:01.201Z,23.90
2022-10-05T22:14:05.934Z,24.07
2022-10-05T22:16:13.088Z,24.94
2022-10-05T22:18:18.700Z,25.33
2022-10-05T22:20:22.904Z,25.52
2022-10-05T22:22:26.857Z,25.78
2022-10-05T22:24:30.849Z,25.67
2022-10-05T22:26:35.796Z,26.00
2022-10-05T22:28:43.856Z,25.93
2022-10-05T22:30:47.465Z,25.90
2022-10-05T22:32:51.288Z,25.62
2022-10-05T22:34:54.800Z,25.16
2022-10-05T22:36:59.224Z,25.36
2022-10-05T22:39:02.897Z,24.47
2022-10-05T22:41:10.475Z,24.71
2022-10-05T22:43:14.257Z,24.55
2022-10-05T22:45:18.023Z,24.91
2022-10-05T22:47:21.900Z,24.78
2022-10-05T22:49:25.843Z,24.81
2022-10-05T22:51:29.382Z,25.25
2022-10-05T22:53:32.921Z,25.79
2022-10-05T22:55:36.674Z,26.17
2022-10-05T22:57:41.736Z,26.50
2022-10-05T22:59:45.785Z,27.09
2022-10-05T23:01:49.576Z,27.46
2022-10-05T23:03:53.293Z,27.63
2022-10-05T23:05:57.840Z,27.83
2022-10-05T23:08:03.331Z,28.04
2022-10-05T23:10:07.832Z,28.21
2022-10-05T23:12:12.710Z,28.66
2022-10-05T23:14:16.455Z,28.84
2022-10-05T23:16:24.798Z,28.76
2022-10-05T23:18:28.827Z,29.05
2022-10-05T23:20:32.662Z,29.02
2022-10-05T23:22:39.540Z,29.18
2022-10-05T23:24:46.002Z,29.66
2022-10-05T23:26:49.793Z,29.68
2022-10-05T23:28:53.769Z,29.46
2022-10-05T23:31:01.076Z,29.70
2022-10-05T23:33:07.146Z,30.33
2022-10-05T23:35:11.824Z,30.19
2022-10-05T23:37:15.638Z,29.70
2022-10-05T23:39:19.376Z,30.00
2022-10-05T23:41:26.623Z,29.85
2022-10-05T23:43:30.784Z,30.27
2022-10-05T23:45:34.280Z,30.31
2022-10-05T23:47:38.064Z,30.17
2022-10-05T23:49:41.761Z,30.31
2022-10-05T23:51:45.949Z,30.63
2022-10-05T23:53:52.707Z,30.94
2022-10-05T23:55:56.820Z,30.79
2022-10-05T23:58:00.858Z,30.74
